Time;durP1;ratioP1;P1;durP2;ratioP2;P2;SDS_P1;SDS_P2;PMS_P1;PMS_P2;Temp;Humidity;BMP_temperature;BMP_pressure;BME280_temperature;BME280_humidity;BME280_pressure;Samples;Min_cycle;Max_cycle;Signal;HPM_P1;HPM_P2
2021/04/19 00:00:13;;;;;;;16.07;14.10;;;10.10;99.90;;;;;;5035404;28;20409;-54
2021/04/19 00:02:38;;;;;;;18.13;16.00;;;10.20;99.90;;;;;;5035121;28;20420;-57
2021/04/19 00:05:13;;;;;;;17.70;15.60;;;10.10;99.90;;;;;;5035094;28;20453;-56
2021/04/19 00:07:39;;;;;;;18.27;16.47;;;10.00;99.90;;;;;;5035739;28;20374;-57
2021/04/19 00:10:06;;;;;;;18.80;16.20;;;9.80;99.90;;;;;;5035443;28;20406;-58
2021/04/19 00:12:32;;;;;;;20.20;16.13;;;9.70;99.90;;;;;;5034215;28;20177;-56
2021/04/19 00:14:57;;;;;;;17.97;16.07;;;9.80;99.90;;;;;;5034935;28;20406;-55
2021/04/19 00:17:23;;;;;;;18.57;16.57;;;9.80;99.90;;;;;;5034966;28;20206;-57
2021/04/19 00:19:49;;;;;;;18.33;16.40;;;9.70;99.90;;;;;;5034745;28;20246;-58
2021/04/19 00:22:14;;;;;;;19.40;15.97;;;9.60;99.90;;;;;;5036042;28;20175;-58
2021/04/19 00:24:40;;;;;;;17.33;15.53;;;9.50;99.90;;;;;;5034840;28;20192;-58
2021/04/19 00:27:06;;;;;;;18.33;15.93;;;9.50;99.90;;;;;;5035021;28;20175;-58
2021/04/19 00:29:31;;;;;;;18.83;15.77;;;9.50;99.90;;;;;;5034459;28;20201;-58
2021/04/19 00:31:57;;;;;;;19.30;17.30;;;9.50;99.90;;;;;;5034866;28;20493;-57
2021/04/19 00:34:23;;;;;;;16.27;14.57;;;9.60;99.90;;;;;;5034332;28;20186;-58
2021/04/19 00:36:48;;;;;;;15.83;14.33;;;9.60;99.90;;;;;;5034653;28;20166;-57
2021/04/19 00:39:14;;;;;;;18.33;16.33;;;9.50;99.90;;;;;;5034335;28;20170;-57
2021/04/19 00:41:39;;;;;;;17.30;15.40;;;9.40;99.90;;;;;;5034819;28;20175;-55
2021/04/19 00:44:05;;;;;;;16.90;15.10;;;9.40;99.90;;;;;;5034277;28;20187;-51
2021/04/19 00:46:31;;;;;;;17.30;15.60;;;9.30;99.90;;;;;;5033996;28;20285;-56
2021/04/19 00:48:57;;;;;;;18.60;16.73;;;9.30;99.90;;;;;;5034717;28;20537;-54
2021/04/19 00:51:22;;;;;;;17.57;15.77;;;9.30;99.90;;;;;;5034186;28;20435;-57
2021/04/19 00:53:48;;;;;;;18.73;16.83;;;9.20;99.90;;;;;;5034139;28;20183;-57
2021/04/19 00:56:14;;;;;;;19.80;16.77;;;9.20;99.90;;;;;;5034281;28;20175;-56
2021/04/19 00:58:41;;;;;;;20.83;17.67;;;9.10;99.90;;;;;;5033558;28;20477;-53
2021/04/19 01:01:08;;;;;;;19.97;16.97;;;9.10;99.90;;;;;;5034536;28;20407;-56
2021/04/19 01:03:34;;;;;;;18.93;17.00;;;9.20;99.90;;;;;;5034015;28;20478;-52
2021/04/19 01:06:00;;;;;;;18.07;16.13;;;9.30;99.90;;;;;;5033884;28;20442;-56
2021/04/19 01:08:26;;;;;;;19.47;16.07;;;9.40;99.90;;;;;;5034019;28;20922;-57
2021/04/19 01:10:51;;;;;;;19.57;17.50;;;9.30;99.90;;;;;;5033706;28;20159;-57
2021/04/19 01:13:17;;;;;;;22.13;17.20;;;9.30;99.90;;;;;;5034122;28;20195;-57
2021/04/19 01:15:43;;;;;;;19.47;15.70;;;9.30;99.90;;;;;;5033884;28;20215;-57
2021/04/19 01:18:08;;;;;;;21.50;17.43;;;9.00;99.90;;;;;;5033871;28;20220;-53
2021/04/19 01:20:41;;;;;;;19.50;17.47;;;8.90;99.90;;;;;;5033592;28;20709;-56
2021/04/19 01:23:07;;;;;;;26.50;19.47;;;8.90;99.90;;;;;;5033699;28;20202;-56
2021/04/19 01:25:33;;;;;;;18.03;16.13;;;8.90;99.90;;;;;;5033577;28;20446;-57
2021/04/19 01:27:59;;;;;;;19.00;17.10;;;9.00;99.90;;;;;;5033528;28;20543;-57
2021/04/19 01:30:30;;;;;;;21.87;17.10;;;9.00;99.90;;;;;;5033945;28;20213;-56
2021/04/19 01:32:56;;;;;;;20.43;18.23;;;8.90;99.90;;;;;;5033796;28;20458;-56
2021/04/19 01:35:22;;;;;;;20.40;17.80;;;9.00;99.90;;;;;;5033298;28;20496;-55
2021/04/19 01:37:47;;;;;;;19.10;17.20;;;9.10;99.90;;;;;;5033562;28;20178;-57
2021/04/19 01:40:16;;;;;;;22.40;18.90;;;9.10;99.90;;;;;;5033249;28;20175;-57
2021/04/19 01:42:41;;;;;;;27.73;22.23;;;9.00;99.90;;;;;;5032758;28;20242;-52
2021/04/19 01:45:08;;;;;;;20.27;18.23;;;9.00;99.90;;;;;;5033377;28;20473;-58
2021/04/19 01:47:34;;;;;;;22.60;20.27;;;8.90;99.90;;;;;;5035941;28;20221;-58
2021/04/19 01:50:06;;;;;;;27.13;23.87;;;9.10;99.90;;;;;;5033432;28;20402;-56
2021/04/19 01:52:32;;;;;;;25.03;22.03;;;9.10;99.90;;;;;;5033215;28;20533;-58
2021/04/19 01:54:58;;;;;;;26.00;22.40;;;9.20;99.90;;;;;;5033295;28;20496;-57
2021/04/19 01:57:23;;;;;;;21.27;19.10;;;9.20;99.90;;;;;;5034017;28;20206;-58
2021/04/19 01:59:49;;;;;;;25.27;21.10;;;9.20;99.90;;;;;;5037554;28;20195;-58
2021/04/19 02:02:31;;;;;;;24.37;21.00;;;9.10;99.90;;;;;;5037522;28;20183;-57
2021/04/19 02:05:09;;;;;;;22.90;20.50;;;9.20;99.90;;;;;;5037364;28;20647;-58
2021/04/19 02:07:56;;;;;;;23.97;20.37;;;9.30;99.90;;;;;;5019725;28;20877;-58
2021/04/19 02:10:30;;;;;;;19.87;17.87;;;9.30;99.90;;;;;;5037093;28;20387;-58
2021/04/19 02:13:10;;;;;;;21.47;19.20;;;9.40;99.90;;;;;;5037428;28;20765;-57
2021/04/19 02:15:55;;;;;;;23.97;20.67;;;9.50;99.90;;;;;;5037171;28;20422;-57
2021/04/19 02:18:26;;;;;;;22.17;18.20;;;9.50;99.90;;;;;;5036339;28;20417;-56
2021/04/19 02:21:01;;;;;;;20.63;18.43;;;9.60;99.90;;;;;;5028487;28;20441;-58
2021/04/19 02:23:28;;;;;;;23.77;18.13;;;9.60;99.90;;;;;;5035025;28;20441;-58
2021/04/19 02:26:01;;;;;;;19.60;17.50;;;9.60;99.90;;;;;;5037204;28;20445;-58
2021/04/19 02:28:31;;;;;;;20.30;18.10;;;9.60;99.90;;;;;;5037165;28;20397;-58
2021/04/19 02:31:07;;;;;;;19.57;17.60;;;9.60;99.90;;;;;;5037075;28;20768;-58
2021/04/19 02:33:37;;;;;;;21.40;17.73;;;9.60;99.90;;;;;;5036791;28;20464;-57
2021/04/19 02:36:07;;;;;;;18.03;16.13;;;9.70;99.90;;;;;;5037141;28;20756;-58
2021/04/19 02:38:35;;;;;;;20.80;17.50;;;9.80;99.90;;;;;;5037267;28;20416;-57
2021/04/19 02:41:03;;;;;;;18.77;16.10;;;9.80;99.90;;;;;;5036670;28;20930;-58
2021/04/19 02:43:33;;;;;;;16.43;14.77;;;9.80;99.90;;;;;;5036627;28;20868;-57
2021/04/19 02:46:00;;;;;;;18.27;15.63;;;9.60;99.90;;;;;;5036871;28;20505;-58
2021/04/19 02:48:27;;;;;;;17.43;15.60;;;9.70;99.90;;;;;;5036542;28;20420;-57
2021/04/19 02:50:53;;;;;;;16.23;14.53;;;9.70;99.90;;;;;;5036314;28;20439;-58
2021/04/19 02:53:21;;;;;;;18.07;14.97;;;9.80;99.90;;;;;;5036844;28;20446;-56
2021/04/19 02:55:48;;;;;;;17.10;15.40;;;9.80;99.90;;;;;;5036423;28;20433;-58
2021/04/19 02:58:19;;;;;;;17.60;14.70;;;9.90;99.90;;;;;;5036369;28;20962;-57
2021/04/19 03:00:48;;;;;;;18.03;16.13;;;10.00;99.90;;;;;;5036315;28;20391;-58
2021/04/19 03:03:22;;;;;;;17.90;15.70;;;10.00;99.90;;;;;;5035915;28;20446;-58
2021/04/19 03:05:48;;;;;;;16.87;15.07;;;10.00;99.90;;;;;;5035862;28;20484;-57
2021/04/19 03:08:17;;;;;;;19.00;16.20;;;9.90;99.90;;;;;;5035965;28;20470;-58
2021/04/19 03:10:53;;;;;;;16.40;14.80;;;9.90;99.90;;;;;;5035585;28;20395;-56
2021/04/19 03:13:21;;;;;;;20.00;17.43;;;10.00;99.90;;;;;;5036382;28;20433;-55
2021/04/19 03:15:50;;;;;;;19.70;17.13;;;10.00;99.90;;;;;;5036114;28;20490;-58
2021/04/19 03:18:18;;;;;;;17.73;16.03;;;10.00;99.90;;;;;;5017264;28;20564;-58
2021/04/19 03:21:05;;;;;;;17.50;15.70;;;9.90;99.90;;;;;;5035796;28;20410;-55
2021/04/19 03:23:34;;;;;;;17.33;15.50;;;9.90;99.90;;;;;;5036355;28;20425;-57
2021/04/19 03:26:01;;;;;;;19.03;16.87;;;9.90;99.90;;;;;;5035730;28;20536;-58
2021/04/19 03:28:28;;;;;;;16.70;15.00;;;9.90;99.90;;;;;;5036188;28;20755;-57
2021/04/19 03:30:54;;;;;;;19.90;16.60;;;10.10;99.90;;;;;;5034560;28;20976;-57
2021/04/19 03:33:21;;;;;;;18.00;16.03;;;10.10;99.90;;;;;;5036054;28;20526;-55
2021/04/19 03:35:47;;;;;;;19.93;17.50;;;10.10;99.90;;;;;;5035721;28;20168;-57
2021/04/19 03:38:17;;;;;;;18.10;16.20;;;10.00;99.90;;;;;;5035662;28;20418;-57
2021/04/19 03:40:43;;;;;;;19.90;17.77;;;9.90;99.90;;;;;;5035714;28;20399;-57
2021/04/19 03:43:16;;;;;;;21.03;17.77;;;9.80;99.90;;;;;;5035696;28;20473;-57
2021/04/19 03:45:44;;;;;;;18.00;16.20;;;10.00;99.90;;;;;;5035125;28;20519;-56
2021/04/19 03:48:18;;;;;;;17.07;15.23;;;10.00;99.90;;;;;;5035487;28;20509;-56
2021/04/19 03:50:50;;;;;;;17.30;15.60;;;10.10;99.90;;;;;;5035795;28;20393;-57
2021/04/19 03:53:16;;;;;;;18.00;16.10;;;10.00;99.90;;;;;;5052616;28;20452;-57
2021/04/19 03:55:44;;;;;;;18.07;15.30;;;10.10;99.90;;;;;;5055803;28;20407;-55
2021/04/19 03:58:12;;;;;;;18.60;16.30;;;10.00;99.90;;;;;;5055234;28;20414;-55
2021/04/19 04:00:39;;;;;;;18.57;16.63;;;10.00;99.90;;;;;;5046094;28;20422;-55
2021/04/19 04:03:06;;;;;;;18.80;16.90;;;10.00;99.90;;;;;;5035053;28;20483;-55
2021/04/19 04:05:32;;;;;;;19.13;17.10;;;10.10;99.90;;;;;;5035562;28;20813;-57
2021/04/19 04:07:59;;;;;;;21.30;19.10;;;10.00;99.90;;;;;;5035293;28;20420;-56
2021/04/19 04:10:25;;;;;;;21.00;17.70;;;9.90;99.90;;;;;;5034996;28;20409;-57
2021/04/19 04:12:51;;;;;;;18.50;15.87;;;9.80;99.90;;;;;;5034939;28;20433;-52
2021/04/19 04:15:18;;;;;;;18.93;16.97;;;9.90;99.90;;;;;;5034494;28;20482;-55
2021/04/19 04:17:44;;;;;;;20.80;17.73;;;9.90;99.90;;;;;;5034420;28;21726;-53
2021/04/19 04:20:11;;;;;;;18.47;16.47;;;9.90;99.90;;;;;;5034765;28;20502;-53
2021/04/19 04:22:36;;;;;;;18.50;16.63;;;9.90;99.90;;;;;;5034191;28;20442;-55
2021/04/19 04:25:03;;;;;;;21.03;18.83;;;9.90;99.90;;;;;;5017609;28;20888;-53
2021/04/19 04:27:29;;;;;;;20.33;18.03;;;9.90;99.90;;;;;;5034985;28;20176;-53
2021/04/19 04:29:54;;;;;;;18.77;16.93;;;10.00;99.90;;;;;;5034866;28;20417;-57
2021/04/19 04:32:20;;;;;;;21.10;18.57;;;9.80;99.90;;;;;;5034446;28;20225;-58
2021/04/19 04:34:46;;;;;;;21.07;18.97;;;9.90;99.90;;;;;;5034222;28;20665;-57
2021/04/19 04:37:11;;;;;;;22.50;19.43;;;9.80;99.90;;;;;;5030143;28;20210;-52
2021/04/19 04:39:37;;;;;;;22.67;18.97;;;9.90;99.90;;;;;;5028698;28;20184;-55
2021/04/19 04:42:05;;;;;;;21.37;17.80;;;9.80;99.90;;;;;;5015523;28;20748;-57
2021/04/19 04:44:37;;;;;;;20.00;17.90;;;9.80;99.90;;;;;;5014816;28;20238;-57
2021/04/19 04:47:33;;;;;;;23.93;21.43;;;9.90;99.90;;;;;;5014438;28;20396;-57
2021/04/19 04:50:11;;;;;;;21.90;19.50;;;9.90;99.90;;;;;;5014461;28;20878;-57
2021/04/19 04:53:02;;;;;;;22.10;19.90;;;9.90;99.90;;;;;;5014787;28;20383;-57
2021/04/19 04:55:30;;;;;;;26.87;22.10;;;9.90;99.90;;;;;;5014641;28;20884;-57
2021/04/19 04:57:56;;;;;;;24.77;22.10;;;9.90;99.90;;;;;;5014425;28;20439;-55
2021/04/19 05:00:22;;;;;;;22.73;19.37;;;9.90;99.90;;;;;;5014597;28;20411;-56
2021/04/19 05:02:50;;;;;;;20.47;18.37;;;10.00;99.90;;;;;;5013689;28;20494;-57
2021/04/19 05:05:17;;;;;;;23.77;20.07;;;10.00;99.90;;;;;;5014148;28;20471;-56
2021/04/19 05:07:44;;;;;;;24.30;21.20;;;10.10;99.90;;;;;;5018094;28;20441;-56
2021/04/19 05:10:11;;;;;;;23.23;19.60;;;10.10;99.90;;;;;;5033957;28;20411;-56
2021/04/19 05:12:40;;;;;;;19.83;17.83;;;10.10;99.90;;;;;;5034020;28;20434;-57
2021/04/19 05:15:14;;;;;;;20.93;18.70;;;10.10;99.90;;;;;;5033785;28;20429;-56
2021/04/19 05:17:41;;;;;;;21.77;18.33;;;10.20;99.90;;;;;;5033480;28;20419;-57
2021/04/19 05:20:08;;;;;;;22.93;19.87;;;10.20;99.90;;;;;;5033735;28;20406;-58
2021/04/19 05:22:34;;;;;;;20.70;18.50;;;10.00;99.90;;;;;;5033879;28;20415;-55
2021/04/19 05:25:00;;;;;;;18.77;16.93;;;9.90;99.90;;;;;;5033547;28;20457;-57
2021/04/19 05:27:27;;;;;;;21.00;19.10;;;9.90;99.90;;;;;;5034000;28;20920;-57
2021/04/19 05:29:54;;;;;;;19.50;17.50;;;9.70;99.90;;;;;;5033996;28;20409;-54
2021/04/19 05:32:21;;;;;;;20.57;18.37;;;9.30;99.90;;;;;;5032899;28;20417;-58
2021/04/19 05:34:48;;;;;;;22.40;20.00;;;9.10;99.90;;;;;;5033313;28;20406;-58
2021/04/19 05:37:17;;;;;;;23.03;20.23;;;9.10;99.90;;;;;;5033925;28;20878;-58
2021/04/19 05:39:43;;;;;;;21.63;18.33;;;9.00;99.90;;;;;;5033350;28;20471;-58
2021/04/19 05:42:11;;;;;;;24.20;21.63;;;9.00;99.90;;;;;;5025338;28;20427;-57
2021/04/19 05:44:37;;;;;;;23.30;20.90;;;8.90;99.90;;;;;;5022184;28;20442;-58
2021/04/19 05:47:03;;;;;;;22.93;19.73;;;8.90;99.90;;;;;;5013327;28;20418;-58
2021/04/19 05:49:28;;;;;;;27.57;24.67;;;8.90;99.90;;;;;;5013677;28;20168;-58
2021/04/19 05:51:58;;;;;;;28.70;23.67;;;9.00;99.90;;;;;;5013509;28;20171;-57
2021/04/19 05:54:24;;;;;;;26.93;24.10;;;9.00;99.90;;;;;;5013390;28;20191;-54
2021/04/19 05:57:32;;;;;;;28.80;24.93;;;9.10;99.90;;;;;;5013204;28;20459;-57
2021/04/19 06:00:00;;;;;;;28.77;25.70;;;9.20;99.90;;;;;;5013682;28;20398;-58
2021/04/19 06:02:42;;;;;;;31.23;26.43;;;9.20;99.90;;;;;;5044357;28;20794;-57
2021/04/19 06:05:37;;;;;;;28.50;24.57;;;9.20;99.90;;;;;;5053492;28;20463;-58
2021/04/19 06:08:15;;;;;;;26.93;24.17;;;9.20;99.90;;;;;;5022724;28;20429;-58
2021/04/19 06:10:47;;;;;;;31.93;27.03;;;9.20;99.90;;;;;;5032835;28;20758;-54
2021/04/19 06:13:15;;;;;;;29.03;25.83;;;9.30;99.90;;;;;;5032956;28;20549;-56
2021/04/19 06:15:45;;;;;;;27.23;23.70;;;9.40;99.90;;;;;;5032869;28;20459;-53
2021/04/19 06:18:12;;;;;;;28.57;24.87;;;9.50;99.90;;;;;;5031964;28;20788;-57
2021/04/19 06:20:38;;;;;;;34.93;28.13;;;9.50;99.90;;;;;;5033227;28;20410;-58
2021/04/19 06:23:05;;;;;;;28.93;25.83;;;9.50;99.90;;;;;;5032423;28;20441;-57
2021/04/19 06:25:31;;;;;;;28.17;25.17;;;9.50;99.90;;;;;;5033323;28;20455;-54
2021/04/19 06:28:01;;;;;;;33.30;26.77;;;9.50;99.90;;;;;;5032946;28;20406;-56
2021/04/19 06:30:30;;;;;;;26.60;23.80;;;9.50;99.90;;;;;;5032956;28;20506;-56
2021/04/19 06:32:58;;;;;;;29.57;25.83;;;9.50;99.90;;;;;;5032557;28;20426;-58
2021/04/19 06:35:24;;;;;;;27.90;22.63;;;9.50;99.90;;;;;;5031607;28;20422;-57
2021/04/19 06:37:54;;;;;;;30.43;26.47;;;9.50;99.90;;;;;;5032440;28;20456;-55
2021/04/19 06:40:19;;;;;;;26.17;23.47;;;9.60;99.90;;;;;;5032443;28;20798;-57
2021/04/19 06:42:45;;;;;;;30.67;24.57;;;9.60;99.90;;;;;;5032608;28;20437;-58
2021/04/19 06:45:14;;;;;;;28.50;24.93;;;9.60;99.90;;;;;;5034624;28;20196;-56
2021/04/19 06:47:41;;;;;;;26.23;23.53;;;9.60;99.90;;;;;;5036352;28;20414;-58
2021/04/19 06:50:08;;;;;;;28.07;24.77;;;9.70;99.90;;;;;;5036584;28;20785;-58
2021/04/19 06:52:33;;;;;;;25.60;23.00;;;9.50;99.90;;;;;;5036145;28;20401;-54
2021/04/19 06:55:00;;;;;;;26.60;23.73;;;9.30;99.90;;;;;;5036301;28;20410;-54
2021/04/19 06:57:30;;;;;;;28.37;25.33;;;9.20;99.90;;;;;;5035188;28;20194;-56
2021/04/19 06:59:57;;;;;;;28.60;23.70;;;9.10;99.90;;;;;;5036189;28;20922;-58
2021/04/19 07:02:26;;;;;;;31.13;26.90;;;9.20;99.90;;;;;;5035878;28;20779;-56
2021/04/19 07:04:53;;;;;;;26.93;24.10;;;9.30;99.90;;;;;;5036199;28;20972;-57
2021/04/19 07:07:28;;;;;;;27.27;24.43;;;9.40;99.90;;;;;;5035866;28;20906;-53
2021/04/19 07:09:55;;;;;;;29.40;23.60;;;9.30;99.90;;;;;;5016794;28;20394;-56
2021/04/19 07:12:24;;;;;;;28.43;25.40;;;9.10;99.90;;;;;;5016841;28;20425;-52
2021/04/19 07:14:54;;;;;;;23.67;21.20;;;9.10;99.90;;;;;;5016410;28;20399;-57
2021/04/19 07:17:20;;;;;;;24.93;22.47;;;9.20;99.90;;;;;;5017185;28;20407;-57
2021/04/19 07:19:46;;;;;;;26.97;23.90;;;9.30;99.90;;;;;;5022654;28;20434;-57
2021/04/19 07:22:17;;;;;;;26.97;24.13;;;9.20;99.90;;;;;;5030622;28;20779;-54
2021/04/19 07:24:43;;;;;;;22.63;20.33;;;9.20;99.90;;;;;;5036052;28;20460;-56
2021/04/19 07:27:11;;;;;;;26.67;23.80;;;9.10;99.90;;;;;;5036183;28;20410;-54
2021/04/19 07:29:39;;;;;;;32.83;25.77;;;9.20;99.90;;;;;;5035525;28;20414;-56
2021/04/19 07:32:05;;;;;;;26.00;22.97;;;9.30;99.90;;;;;;5035775;28;20413;-58
2021/04/19 07:34:32;;;;;;;22.90;20.60;;;9.40;99.90;;;;;;5035557;28;20426;-54
2021/04/19 07:37:03;;;;;;;22.27;20.07;;;9.50;99.90;;;;;;5036102;28;20414;-53
2021/04/19 07:39:37;;;;;;;25.10;22.40;;;9.50;99.90;;;;;;5035028;28;20414;-57
2021/04/19 07:42:10;;;;;;;24.10;21.57;;;9.60;99.90;;;;;;5034344;28;20818;-58
2021/04/19 07:44:49;;;;;;;25.00;21.70;;;9.70;99.90;;;;;;5032613;28;20496;-57
2021/04/19 07:47:24;;;;;;;30.23;26.20;;;9.70;99.90;;;;;;5035468;28;20435;-56
2021/04/19 07:50:04;;;;;;;24.10;20.03;;;9.70;99.90;;;;;;5034227;28;20481;-57
2021/04/19 07:52:31;;;;;;;24.80;21.07;;;9.80;99.90;;;;;;5034656;28;20375;-58
2021/04/19 07:55:14;;;;;;;24.10;21.63;;;9.90;99.90;;;;;;5034638;28;20428;-56
2021/04/19 07:57:41;;;;;;;22.63;20.47;;;9.80;99.90;;;;;;5035248;28;20436;-58
2021/04/19 08:00:09;;;;;;;26.00;22.20;;;9.80;99.90;;;;;;5035478;28;20520;-58
2021/04/19 08:02:35;;;;;;;31.57;27.77;;;9.90;99.90;;;;;;5035074;28;20812;-58
2021/04/19 08:05:05;;;;;;;24.40;21.80;;;9.90;99.90;;;;;;5035104;28;20536;-59
2021/04/19 08:07:31;;;;;;;25.70;22.93;;;10.10;99.90;;;;;;5037405;28;20393;-58
2021/04/19 08:10:06;;;;;;;22.93;20.43;;;10.10;99.90;;;;;;5034975;28;20396;-59
2021/04/19 08:12:37;;;;;;;23.83;21.37;;;10.30;99.90;;;;;;5035482;28;20491;-57
2021/04/19 08:15:08;;;;;;;26.90;23.00;;;10.40;99.90;;;;;;5035665;28;20442;-59
2021/04/19 08:17:35;;;;;;;26.30;22.70;;;10.50;99.90;;;;;;5035434;28;20416;-58
2021/04/19 08:20:07;;;;;;;22.73;20.07;;;10.70;99.90;;;;;;5034998;28;20408;-57
2021/04/19 08:22:36;;;;;;;26.13;23.30;;;10.60;99.90;;;;;;5034979;28;20488;-58
2021/04/19 08:25:16;;;;;;;27.63;24.70;;;10.70;99.90;;;;;;5034855;28;20804;-59
2021/04/19 08:27:43;;;;;;;30.60;27.07;;;10.70;99.90;;;;;;5034714;28;20393;-58
2021/04/19 08:30:11;;;;;;;26.77;23.90;;;10.70;99.90;;;;;;5034937;28;20404;-57
2021/04/19 08:32:37;;;;;;;25.90;23.10;;;10.70;99.90;;;;;;5033968;28;20421;-55
2021/04/19 08:35:05;;;;;;;25.10;22.40;;;10.80;99.90;;;;;;5035266;28;20895;-57
2021/04/19 08:37:31;;;;;;;23.73;21.30;;;10.70;99.90;;;;;;5034481;28;20544;-59
2021/04/19 08:39:59;;;;;;;23.43;20.93;;;10.80;99.90;;;;;;5034871;28;20405;-57
2021/04/19 08:42:26;;;;;;;24.83;22.23;;;10.70;99.90;;;;;;5034055;28;20401;-57
2021/04/19 08:45:00;;;;;;;25.87;21.83;;;10.60;99.90;;;;;;5034063;28;20443;-58
2021/04/19 08:47:27;;;;;;;20.63;18.43;;;10.50;99.90;;;;;;5033970;28;20446;-57
2021/04/19 08:49:54;;;;;;;25.23;21.17;;;10.60;99.90;;;;;;5034451;28;20405;-58
2021/04/19 08:52:20;;;;;;;23.60;21.10;;;10.80;99.90;;;;;;5034385;28;20892;-59
2021/04/19 08:54:46;;;;;;;25.53;22.93;;;10.70;99.90;;;;;;5034420;28;20533;-56
2021/04/19 08:57:12;;;;;;;22.43;20.03;;;10.80;99.90;;;;;;5034235;28;20813;-57
2021/04/19 08:59:39;;;;;;;22.53;20.23;;;10.80;99.90;;;;;;5022269;28;20228;-57
2021/04/19 09:02:07;;;;;;;21.70;19.47;;;10.80;99.90;;;;;;5029261;28;20432;-54
2021/04/19 09:04:32;;;;;;;21.20;19.00;;;10.70;99.90;;;;;;5034116;28;20424;-57
2021/04/19 09:06:59;;;;;;;22.83;20.43;;;10.70;99.90;;;;;;5033332;28;20416;-58
2021/04/19 09:09:36;;;;;;;21.70;19.47;;;10.80;99.90;;;;;;5034288;28;20168;-59
2021/04/19 09:12:11;;;;;;;25.00;20.73;;;10.90;99.90;;;;;;5034520;28;20417;-58
2021/04/19 09:14:39;;;;;;;25.27;20.90;;;11.10;99.90;;;;;;5034077;28;20420;-57
2021/04/19 09:17:05;;;;;;;24.37;21.57;;;11.20;99.90;;;;;;5034071;28;20408;-57
2021/04/19 09:19:33;;;;;;;23.37;19.87;;;11.10;99.90;;;;;;5034006;28;20399;-59
2021/04/19 09:22:13;;;;;;;27.93;19.23;;;11.00;99.90;;;;;;5015786;28;20424;-59
2021/04/19 09:25:07;;;;;;;23.27;20.50;;;10.80;99.90;;;;;;5033675;28;20417;-58
2021/04/19 09:27:56;;;;;;;25.20;22.23;;;10.90;99.90;;;;;;5033997;28;20770;-58
2021/04/19 09:30:27;;;;;;;24.03;21.57;;;11.00;99.90;;;;;;5034241;28;20417;-59
2021/04/19 09:33:02;;;;;;;23.57;20.87;;;10.90;99.90;;;;;;5033221;28;20442;-58
2021/04/19 09:35:43;;;;;;;21.30;19.10;;;11.00;99.90;;;;;;5033357;28;20448;-58
2021/04/19 09:38:15;;;;;;;20.57;18.57;;;11.00;99.90;;;;;;5033853;28;20409;-58
2021/04/19 09:40:49;;;;;;;24.30;21.33;;;10.90;99.90;;;;;;5015590;28;20963;-54
2021/04/19 09:43:49;;;;;;;22.60;20.20;;;10.90;99.90;;;;;;5033458;28;20843;-58
2021/04/19 09:46:17;;;;;;;22.40;19.83;;;10.80;99.90;;;;;;5030138;28;20465;-58
2021/04/19 09:48:43;;;;;;;21.63;19.27;;;10.70;99.90;;;;;;5033396;28;20487;-54
2021/04/19 09:51:18;;;;;;;26.83;23.97;;;10.80;99.90;;;;;;5033675;28;20449;-58
2021/04/19 09:53:59;;;;;;;29.43;23.33;;;10.90;99.90;;;;;;5033447;28;20209;-56
2021/04/19 09:56:27;;;;;;;22.73;20.23;;;11.00;99.90;;;;;;5033152;28;20919;-57
2021/04/19 09:58:53;;;;;;;22.23;19.83;;;11.10;99.90;;;;;;5033260;28;20511;-57
2021/04/19 10:01:20;;;;;;;25.90;22.67;;;11.00;99.90;;;;;;5032826;28;20514;-56
2021/04/19 10:03:51;;;;;;;22.60;20.20;;;10.90;99.90;;;;;;5033452;28;20216;-58
2021/04/19 10:06:31;;;;;;;21.63;19.43;;;11.10;99.90;;;;;;5034493;28;20877;-57
2021/04/19 10:09:01;;;;;;;21.00;18.80;;;11.30;99.90;;;;;;5034540;28;20439;-55
2021/04/19 10:11:31;;;;;;;24.20;20.77;;;11.20;99.90;;;;;;5031211;28;20483;-58
2021/04/19 10:14:04;;;;;;;27.33;22.83;;;11.40;99.90;;;;;;5033135;28;20462;-57
2021/04/19 10:16:48;;;;;;;25.07;22.50;;;11.50;99.90;;;;;;5036109;28;20394;-57
2021/04/19 10:19:26;;;;;;;22.93;20.27;;;11.50;99.90;;;;;;5034575;28;20432;-58
2021/04/19 10:22:06;;;;;;;24.17;21.40;;;11.50;99.90;;;;;;5037762;28;20862;-56
2021/04/19 10:24:33;;;;;;;25.03;21.20;;;11.40;99.90;;;;;;5037077;28;20432;-54
2021/04/19 10:27:00;;;;;;;26.10;23.07;;;11.70;99.90;;;;;;5036941;28;20417;-57
2021/04/19 10:29:28;;;;;;;23.53;20.97;;;12.00;99.90;;;;;;5037528;28;20405;-55
2021/04/19 10:32:01;;;;;;;26.80;23.87;;;12.10;99.90;;;;;;5036740;28;20401;-58
2021/04/19 10:34:32;;;;;;;30.17;23.10;;;12.10;99.90;;;;;;5036719;28;20445;-54
2021/04/19 10:37:04;;;;;;;23.20;20.80;;;11.90;99.90;;;;;;5036773;28;20433;-54
2021/04/19 10:39:33;;;;;;;25.83;23.17;;;11.60;99.90;;;;;;5029208;28;20383;-53
2021/04/19 10:42:05;;;;;;;29.70;24.80;;;11.50;99.90;;;;;;5029363;28;20498;-55
2021/04/19 10:44:34;;;;;;;26.50;23.80;;;11.30;99.90;;;;;;5033294;28;20443;-53
2021/04/19 10:47:00;;;;;;;26.60;23.37;;;11.70;99.90;;;;;;5035047;28;20429;-54
2021/04/19 10:49:27;;;;;;;27.60;23.50;;;11.80;99.90;;;;;;5033434;28;20783;-57
2021/04/19 10:51:58;;;;;;;30.47;25.80;;;12.00;99.90;;;;;;5035747;28;20174;-55
2021/04/19 10:54:38;;;;;;;25.77;23.13;;;11.90;99.90;;;;;;5036133;28;20528;-56
2021/04/19 10:57:06;;;;;;;25.13;22.17;;;11.90;99.90;;;;;;5035011;28;20402;-58
2021/04/19 10:59:32;;;;;;;26.70;23.10;;;11.70;99.90;;;;;;5035478;28;20409;-57
2021/04/19 11:02:09;;;;;;;24.10;21.37;;;11.70;99.90;;;;;;5034718;28;20443;-55
2021/04/19 11:04:35;;;;;;;26.33;23.53;;;11.90;99.90;;;;;;5035102;28;20439;-56
2021/04/19 11:07:32;;;;;;;25.10;21.60;;;11.80;99.90;;;;;;5034632;28;20508;-57
2021/04/19 11:10:19;;;;;;;25.73;22.50;;;11.90;99.90;;;;;;5019027;28;20460;-57
2021/04/19 11:13:06;;;;;;;24.70;22.13;;;11.70;99.90;;;;;;5033929;28;20434;-58
2021/04/19 11:15:46;;;;;;;22.80;20.50;;;11.50;99.90;;;;;;5034843;28;20422;-57
2021/04/19 11:18:24;;;;;;;26.20;23.60;;;11.70;99.90;;;;;;5034227;28;20425;-58
2021/04/19 11:20:52;;;;;;;22.07;19.67;;;11.90;99.90;;;;;;5034192;28;20421;-57
2021/04/19 11:23:23;;;;;;;23.47;20.23;;;12.10;99.90;;;;;;5033391;28;20438;-58
2021/04/19 11:25:50;;;;;;;23.90;21.30;;;12.00;99.90;;;;;;5034825;28;20856;-58
2021/04/19 11:28:17;;;;;;;23.23;20.70;;;12.30;99.90;;;;;;5035006;28;20441;-57
2021/04/19 11:30:43;;;;;;;21.93;19.57;;;12.30;99.90;;;;;;5035306;28;20947;-57
2021/04/19 11:33:11;;;;;;;24.50;21.90;;;12.00;99.90;;;;;;5034437;28;20484;-57
2021/04/19 11:35:38;;;;;;;22.17;19.10;;;12.30;99.90;;;;;;5034215;28;20793;-58
2021/04/19 11:38:06;;;;;;;23.60;20.77;;;12.00;99.90;;;;;;5021315;28;20411;-58
2021/04/19 11:40:39;;;;;;;24.10;21.60;;;11.90;99.90;;;;;;5012866;28;20428;-56
2021/04/19 11:43:24;;;;;;;22.50;20.10;;;12.00;99.90;;;;;;5035764;28;20445;-58
2021/04/19 11:46:10;;;;;;;23.10;20.70;;;12.10;99.90;;;;;;5035549;28;20450;-57
2021/04/19 11:48:38;;;;;;;23.53;20.97;;;12.30;99.90;;;;;;5035723;28;20382;-57
2021/04/19 11:51:05;;;;;;;24.60;21.30;;;12.50;99.90;;;;;;5035581;28;20402;-58
2021/04/19 11:53:34;;;;;;;21.93;19.73;;;12.70;99.90;;;;;;5035666;28;20472;-57
2021/04/19 11:56:00;;;;;;;21.90;19.63;;;12.70;99.90;;;;;;5035310;28;20404;-57
2021/04/19 11:58:26;;;;;;;21.43;19.23;;;12.60;99.90;;;;;;5035372;28;20434;-59
2021/04/19 12:00:54;;;;;;;20.47;18.20;;;12.50;99.90;;;;;;5035408;28;20960;-58
2021/04/19 12:03:24;;;;;;;24.10;20.97;;;12.60;99.90;;;;;;5034494;28;20683;-59
2021/04/19 12:05:50;;;;;;;22.37;19.53;;;12.70;99.90;;;;;;5034785;28;20445;-57
2021/04/19 12:08:16;;;;;;;19.70;17.60;;;12.40;99.90;;;;;;5034785;28;20430;-57
2021/04/19 12:10:42;;;;;;;20.63;18.00;;;12.60;99.90;;;;;;5034488;28;20495;-52
2021/04/19 12:13:13;;;;;;;21.47;19.20;;;12.90;99.90;;;;;;5016871;28;20230;-55
2021/04/19 12:15:42;;;;;;;19.93;17.83;;;13.10;99.90;;;;;;5034754;28;20394;-58
2021/04/19 12:18:08;;;;;;;19.77;17.07;;;12.70;99.90;;;;;;5034616;28;20460;-56
2021/04/19 12:20:34;;;;;;;19.80;17.90;;;12.50;99.90;;;;;;5037321;28;20418;-57
2021/04/19 12:23:00;;;;;;;17.57;15.63;;;12.70;99.90;;;;;;5034612;28;20433;-58
2021/04/19 12:25:26;;;;;;;16.70;15.00;;;12.80;99.90;;;;;;5034578;28;20434;-57
2021/04/19 12:27:52;;;;;;;16.87;15.13;;;12.60;99.90;;;;;;5034914;28;20404;-57
2021/04/19 12:30:18;;;;;;;17.57;15.67;;;12.50;99.90;;;;;;5034535;28;20808;-56
2021/04/19 12:32:43;;;;;;;17.73;15.93;;;12.50;99.90;;;;;;5033812;28;20191;-55
2021/04/19 12:35:10;;;;;;;15.87;14.27;;;12.70;99.90;;;;;;5034733;28;20259;-57
2021/04/19 12:37:35;;;;;;;15.30;13.73;;;12.40;99.90;;;;;;5034235;28;20613;-56
2021/04/19 12:40:04;;;;;;;16.37;14.67;;;12.40;99.90;;;;;;5028755;28;20422;-57
2021/04/19 12:42:29;;;;;;;14.83;13.43;;;12.60;99.90;;;;;;5027458;28;20206;-56
2021/04/19 12:44:55;;;;;;;15.80;14.30;;;12.60;99.90;;;;;;5031680;28;20456;-57